createdAt,value
2022-09-20T00:00:03.050Z,75.95
2022-09-20T00:02:34.356Z,76.27
2022-09-20T00:05:07.535Z,76.59
2022-09-20T00:07:39.282Z,76.98
2022-09-20T00:10:14.640Z,76.41
2022-09-20T00:12:46.369Z,76.23
2022-09-20T00:15:17.899Z,76.33
2022-09-20T00:17:49.086Z,76.61
2022-09-20T00:20:20.499Z,76.68
2022-09-20T00:22:52.248Z,76.82
2022-09-20T00:25:23.891Z,76.88
2022-09-20T00:27:55.190Z,77.39
2022-09-20T00:30:26.245Z,77.52
2022-09-20T00:32:57.528Z,77.48
2022-09-20T00:35:30.193Z,77.32
2022-09-20T00:38:01.500Z,77.10
2022-09-20T00:40:33.082Z,76.92
2022-09-20T00:43:04.452Z,76.38
2022-09-20T00:45:37.276Z,76.83
2022-09-20T00:48:13.537Z,77.02
2022-09-20T00:50:50.466Z,77.00
2022-09-20T00:53:26.482Z,76.64
2022-09-20T00:56:01.334Z,76.60
2022-09-20T00:58:36.580Z,76.72
2022-09-20T01:01:08.309Z,77.09
2022-09-20T01:03:41.224Z,76.84
2022-09-20T01:06:16.988Z,76.70
2022-09-20T01:08:53.136Z,76.43
2022-09-20T01:11:24.558Z,76.08
2022-09-20T01:13:55.989Z,76.57
2022-09-20T01:16:29.255Z,77.13
2022-09-20T01:19:04.080Z,77.32
2022-09-20T01:21:35.940Z,76.91
2022-09-20T01:24:15.976Z,76.38
2022-09-20T01:27:14.975Z,76.90
2022-09-20T01:30:05.010Z,76.04
2022-09-20T01:32:45.317Z,75.66
2022-09-20T01:35:21.557Z,75.91
2022-09-20T01:38:07.574Z,76.28
2022-09-20T01:40:48.179Z,76.65
2022-09-20T01:43:28.656Z,76.26
2022-09-20T01:46:06.269Z,76.41
2022-09-20T01:48:41.923Z,76.51
2022-09-20T01:51:49.319Z,76.51
2022-09-20T01:54:50.309Z,75.92
2022-09-20T01:57:52.036Z,75.53
2022-09-20T02:00:25.490Z,75.78
2022-09-20T02:03:29.501Z,76.45
2022-09-20T02:06:21.040Z,76.64
2022-09-20T02:09:28.379Z,76.18
2022-09-20T02:12:25.310Z,75.95
2022-09-20T02:15:07.358Z,76.20
2022-09-20T02:17:50.071Z,75.78
2022-09-20T02:20:33.385Z,75.51
2022-09-20T02:23:23.121Z,75.72
2022-09-20T02:26:11.972Z,75.84
2022-09-20T02:29:03.620Z,76.04
2022-09-20T02:31:52.559Z,76.05
2022-09-20T02:34:56.986Z,76.58
2022-09-20T02:37:49.754Z,76.74
2022-09-20T02:40:39.721Z,76.96
2022-09-20T02:43:23.006Z,76.58
2022-09-20T02:46:03.060Z,76.58
2022-09-20T02:48:44.991Z,76.42
2022-09-20T02:51:23.562Z,76.55
2022-09-20T02:54:06.131Z,76.75
2022-09-20T02:56:44.423Z,76.54
2022-09-20T02:59:32.772Z,75.95
2022-09-20T03:02:16.247Z,76.36
2022-09-20T03:05:03.510Z,76.47
2022-09-20T03:07:41.392Z,76.33
2022-09-20T03:10:20.405Z,76.36
2022-09-20T03:13:07.803Z,76.07
2022-09-20T03:15:50.151Z,76.05
2022-09-20T03:18:31.134Z,76.15
2022-09-20T03:21:12.976Z,76.38
2022-09-20T03:23:56.275Z,76.60
2022-09-20T03:26:43.924Z,76.39
2022-09-20T03:29:30.624Z,76.03
2022-09-20T03:32:22.891Z,75.90
2022-09-20T03:35:08.757Z,75.56
2022-09-20T03:38:04.273Z,75.58
2022-09-20T03:40:53.723Z,75.58
2022-09-20T03:43:39.462Z,75.76
2022-09-20T03:46:20.122Z,76.42
2022-09-20T03:49:11.939Z,76.64
2022-09-20T03:51:56.012Z,76.62
2022-09-20T03:54:45.443Z,76.58
2022-09-20T03:57:43.418Z,76.53
2022-09-20T04:00:37.440Z,76.11
2022-09-20T04:03:24.262Z,76.15
2022-09-20T04:06:11.120Z,75.67
2022-09-20T04:09:02.460Z,75.76
2022-09-20T04:11:42.931Z,75.84
2022-09-20T04:14:19.641Z,75.73
2022-09-20T04:16:57.145Z,75.65
2022-09-20T04:19:35.141Z,75.88
2022-09-20T04:22:07.871Z,75.91
2022-09-20T04:24:47.893Z,76.08
2022-09-20T04:27:25.241Z,76.06
2022-09-20T04:30:05.700Z,76.11
2022-09-20T04:32:42.458Z,75.99
2022-09-20T04:35:44.156Z,76.00
2022-09-20T04:38:18.874Z,75.91
2022-09-20T04:40:58.648Z,76.09
2022-09-20T04:44:06.743Z,75.93
2022-09-20T04:47:06.229Z,75.99
2022-09-20T04:50:20.924Z,75.64
2022-09-20T04:53:25.085Z,75.41
2022-09-20T04:56:02.450Z,75.60
2022-09-20T04:58:49.062Z,75.73
2022-09-20T05:02:03.702Z,75.85
2022-09-20T05:05:16.334Z,75.45
2022-09-20T05:08:18.099Z,75.61
2022-09-20T05:11:30.751Z,75.62
2022-09-20T05:17:20.696Z,75.44
2022-09-20T05:20:24.380Z,75.43
2022-09-20T05:23:11.489Z,75.40
2022-09-20T05:26:08.857Z,75.11
2022-09-20T05:28:51.230Z,75.35
2022-09-20T05:31:32.037Z,75.55
2022-09-20T05:34:11.879Z,75.71
2022-09-20T05:36:55.695Z,75.62
2022-09-20T05:39:38.134Z,75.91
2022-09-20T05:42:19.280Z,76.08
2022-09-20T05:45:09.152Z,75.50
2022-09-20T05:47:48.624Z,75.39
2022-09-20T05:50:35.678Z,75.71
2022-09-20T05:53:47.929Z,75.64
2022-09-20T05:56:28.310Z,74.96
2022-09-20T05:59:17.469Z,75.16
2022-09-20T06:02:00.562Z,75.04
2022-09-20T06:04:40.105Z,74.42
2022-09-20T06:07:23.240Z,74.73
2022-09-20T06:10:23.267Z,74.89
2022-09-20T06:13:02.083Z,75.25
2022-09-20T06:15:47.100Z,74.90
2022-09-20T06:18:28.838Z,74.17
2022-09-20T06:21:11.512Z,74.12
2022-09-20T06:23:42.789Z,73.50
2022-09-20T06:26:19.198Z,73.27
2022-09-20T06:28:58.212Z,73.34
2022-09-20T06:31:30.284Z,73.25
2022-09-20T06:34:06.012Z,72.68
2022-09-20T06:37:05.162Z,73.09
2022-09-20T06:40:01.746Z,73.20
2022-09-20T06:42:33.528Z,73.50
2022-09-20T06:45:05.294Z,73.64
2022-09-20T06:47:38.885Z,74.11
2022-09-20T06:50:16.710Z,74.37
2022-09-20T06:52:49.552Z,74.37
2022-09-20T06:55:29.424Z,73.76
2022-09-20T06:58:01.355Z,74.13
2022-09-20T07:00:33.425Z,74.33
2022-09-20T07:03:05.610Z,73.92
2022-09-20T07:05:39.282Z,74.02
2022-09-20T07:08:10.946Z,73.45
2022-09-20T07:10:43.665Z,73.90
2022-09-20T07:13:15.234Z,73.53
2022-09-20T07:15:46.668Z,73.10
2022-09-20T07:18:18.197Z,72.59
2022-09-20T07:20:49.657Z,72.15
2022-09-20T07:23:20.881Z,72.64
2022-09-20T07:25:52.336Z,72.94
2022-09-20T07:28:23.521Z,72.53
2022-09-20T07:30:54.838Z,72.35
2022-09-20T07:33:26.239Z,72.27
2022-09-20T07:35:58.226Z,72.48
2022-09-20T07:38:29.653Z,72.00
2022-09-20T07:41:02.837Z,71.05
2022-09-20T07:43:34.793Z,71.05
2022-09-20T07:46:07.381Z,71.03
2022-09-20T07:48:38.971Z,70.34
2022-09-20T07:51:13.029Z,70.18
2022-09-20T07:53:44.594Z,70.72
2022-09-20T07:56:19.776Z,70.46
2022-09-20T07:58:52.551Z,69.79
2022-09-20T08:01:23.844Z,69.90
2022-09-20T08:03:57.368Z,69.99
2022-09-20T08:06:28.839Z,70.34
2022-09-20T08:09:00.038Z,70.04
2022-09-20T08:11:31.984Z,69.91
2022-09-20T08:14:05.723Z,70.28
2022-09-20T08:16:43.248Z,69.79
2022-09-20T08:19:18.751Z,69.10
2022-09-20T08:21:50.446Z,69.10
2022-09-20T08:24:21.771Z,68.95
2022-09-20T08:26:52.931Z,68.94
2022-09-20T08:29:24.430Z,69.31
2022-09-20T08:31:58.426Z,69.43
2022-09-20T08:34:29.956Z,69.16
2022-09-20T08:37:01.124Z,69.15
2022-09-20T08:42:33.848Z,68.88
2022-09-20T08:45:22.203Z,68.52
2022-09-20T08:47:58.871Z,68.86
2022-09-20T08:50:30.776Z,69.62
2022-09-20T08:53:05.470Z,70.03
2022-09-20T08:55:36.869Z,69.83
2022-09-20T08:58:12.037Z,69.12
2022-09-20T09:00:45.941Z,68.71
2022-09-20T09:03:19.298Z,68.13
2022-09-20T09:05:53.080Z,68.02
2022-09-20T09:08:27.601Z,68.31
2022-09-20T09:11:08.763Z,67.85
2022-09-20T09:13:48.917Z,67.86
2022-09-20T09:16:27.217Z,68.33
2022-09-20T09:19:20.119Z,68.49
2022-09-20T09:21:51.549Z,68.52
2022-09-20T09:24:25.887Z,68.45
2022-09-20T09:27:10.526Z,67.90
2022-09-20T09:29:53.142Z,67.41
2022-09-20T09:32:29.280Z,67.27
2022-09-20T09:35:23.364Z,66.21
2022-09-20T09:37:59.526Z,65.89
2022-09-20T09:40:32.462Z,65.98
2022-09-20T09:43:05.171Z,66.10
2022-09-20T09:45:38.845Z,66.38
2022-09-20T09:48:24.416Z,66.55
2022-09-20T09:51:11.336Z,66.71
2022-09-20T09:53:43.623Z,65.69
2022-09-20T09:56:27.547Z,65.41
2022-09-20T09:59:20.666Z,65.15
2022-09-20T10:02:00.111Z,64.40
2022-09-20T10:04:37.946Z,63.75
2022-09-20T10:07:16.006Z,63.30
2022-09-20T10:10:07.745Z,62.89
2022-09-20T10:12:56.958Z,62.37
2022-09-20T10:15:44.930Z,62.28
2022-09-20T10:18:36.811Z,62.51
2022-09-20T10:21:19.905Z,61.10
2022-09-20T10:24:04.485Z,60.51
2022-09-20T10:26:45.468Z,61.02
2022-09-20T10:29:29.274Z,61.73
2022-09-20T10:32:14.060Z,61.87
2022-09-20T10:35:06.440Z,61.49
2022-09-20T10:37:49.479Z,61.81
2022-09-20T10:40:51.752Z,61.46
2022-09-20T10:43:42.132Z,61.46
2022-09-20T10:46:38.250Z,60.50
2022-09-20T10:49:24.978Z,60.91
2022-09-20T10:52:10.587Z,60.84
2022-09-20T10:54:56.459Z,60.98
2022-09-20T10:57:48.930Z,60.34
2022-09-20T11:00:27.044Z,59.62
2022-09-20T11:03:17.196Z,59.73
2022-09-20T11:05:59.442Z,59.29
2022-09-20T11:08:35.090Z,58.78
2022-09-20T11:11:10.625Z,58.76
2022-09-20T11:13:47.076Z,59.15
2022-09-20T11:16:24.118Z,59.02
2022-09-20T11:19:00.600Z,58.64
2022-09-20T11:21:38.864Z,58.91
2022-09-20T11:24:22.394Z,59.38
2022-09-20T11:26:56.252Z,59.47
2022-09-20T11:29:32.602Z,59.30
2022-09-20T11:32:11.648Z,59.10
2022-09-20T11:34:53.730Z,59.06
2022-09-20T11:37:29.929Z,59.29
2022-09-20T11:40:07.054Z,59.11
2022-09-20T11:42:41.519Z,59.08
2022-09-20T11:45:15.769Z,58.68
2022-09-20T11:47:54.980Z,58.36
2022-09-20T11:51:04.771Z,58.48
2022-09-20T11:53:52.248Z,58.10
2022-09-20T11:56:25.919Z,57.70
2022-09-20T11:58:59.942Z,58.40
2022-09-20T12:01:33.951Z,59.11
2022-09-20T12:04:32.891Z,58.72
2022-09-20T12:07:11.438Z,57.47
2022-09-20T12:09:45.649Z,57.33
2022-09-20T12:12:33.113Z,57.90
2022-09-20T12:15:07.702Z,58.27
2022-09-20T12:17:54.456Z,58.52
2022-09-20T12:21:06.174Z,58.58
2022-09-20T12:24:04.077Z,58.40
2022-09-20T12:26:46.530Z,57.24
2022-09-20T12:29:51.558Z,56.91
2022-09-20T12:32:44.236Z,57.26
2022-09-20T12:36:00.671Z,57.29
2022-09-20T12:38:38.416Z,57.54
2022-09-20T12:41:13.431Z,57.96
2022-09-20T12:44:04.165Z,58.16
2022-09-20T12:46:53.208Z,58.85
2022-09-20T12:49:52.589Z,59.02
2022-09-20T12:53:00.902Z,59.43
2022-09-20T12:55:47.289Z,59.53
2022-09-20T12:58:38.293Z,59.80
2022-09-20T13:01:31.201Z,59.77
2022-09-20T13:04:37.016Z,60.20
2022-09-20T13:07:51.209Z,59.92
2022-09-20T13:10:29.486Z,60.10
2022-09-20T13:13:06.274Z,60.14
2022-09-20T13:15:38.212Z,60.51
2022-09-20T13:18:15.697Z,60.30
2022-09-20T13:20:47.705Z,60.30
2022-09-20T13:23:25.030Z,59.73
2022-09-20T13:25:59.267Z,59.15
2022-09-20T13:28:41.082Z,59.08
2022-09-20T13:31:26.420Z,58.90
2022-09-20T13:34:13.716Z,58.41
2022-09-20T13:36:45.346Z,58.32
2022-09-20T13:39:31.269Z,58.32
2022-09-20T13:42:11.859Z,58.05
2022-09-20T13:44:44.028Z,56.88
2022-09-20T13:47:29.733Z,56.03
2022-09-20T13:50:18.455Z,56.00
2022-09-20T13:52:51.794Z,56.01
2022-09-20T13:55:30.838Z,55.62
2022-09-20T13:58:04.525Z,55.58
2022-09-20T14:00:38.229Z,54.96
2022-09-20T14:03:17.489Z,54.83
2022-09-20T14:05:52.213Z,55.27
2022-09-20T14:08:28.378Z,54.78
2022-09-20T14:11:13.438Z,54.87
2022-09-20T14:13:46.443Z,55.17
2022-09-20T14:16:19.231Z,55.47
2022-09-20T14:18:52.524Z,55.49
2022-09-20T14:21:26.881Z,55.42
2022-09-20T14:24:02.354Z,55.29
2022-09-20T14:26:36.549Z,55.63
2022-09-20T14:29:31.877Z,56.15
2022-09-20T14:32:03.551Z,56.09
2022-09-20T14:34:36.789Z,55.85
2022-09-20T14:37:13.895Z,55.44
2022-09-20T14:39:51.864Z,55.37
2022-09-20T14:42:28.242Z,55.51
2022-09-20T14:45:00.044Z,55.72
2022-09-20T14:47:38.382Z,56.02
2022-09-20T14:50:26.410Z,56.11
2022-09-20T14:53:21.015Z,56.43
2022-09-20T14:56:11.968Z,56.20
2022-09-20T14:59:04.860Z,55.47
2022-09-20T15:01:37.605Z,54.60
2022-09-20T15:04:21.143Z,54.04
2022-09-20T15:06:53.608Z,54.39
2022-09-20T15:09:25.161Z,54.04
2022-09-20T15:12:05.765Z,53.40
2022-09-20T15:14:38.050Z,53.20
2022-09-20T15:17:12.865Z,52.01
2022-09-20T15:19:42.339Z,51.30
2022-09-20T15:22:14.460Z,51.96
2022-09-20T15:24:46.142Z,51.43
2022-09-20T15:27:17.708Z,50.92
2022-09-20T15:29:49.083Z,50.95
2022-09-20T15:32:20.412Z,51.23
2022-09-20T15:34:51.720Z,51.15
2022-09-20T15:37:22.854Z,50.85
2022-09-20T15:39:54.215Z,51.36
2022-09-20T15:42:25.889Z,51.78
2022-09-20T15:44:57.223Z,51.97
2022-09-20T15:47:28.943Z,51.84
2022-09-20T15:50:00.385Z,52.13
2022-09-20T15:52:36.947Z,52.20
2022-09-20T15:55:10.372Z,51.86
2022-09-20T15:57:42.293Z,52.26
2022-09-20T16:00:14.999Z,52.41
2022-09-20T16:02:50.200Z,52.53
2022-09-20T16:05:21.944Z,52.81
2022-09-20T16:07:53.337Z,53.13
2022-09-20T16:10:26.350Z,53.34
2022-09-20T16:12:58.858Z,53.66
2022-09-20T16:15:30.410Z,53.80
2022-09-20T16:18:19.325Z,54.32
2022-09-20T16:20:50.663Z,54.74
2022-09-20T16:23:25.901Z,55.05
2022-09-20T16:25:57.837Z,55.90
2022-09-20T16:28:29.239Z,56.29
2022-09-20T16:31:01.729Z,56.79
2022-09-20T16:33:35.411Z,57.20
2022-09-20T16:36:08.900Z,57.34
2022-09-20T16:38:40.566Z,57.53
2022-09-20T16:41:12.034Z,57.94
2022-09-20T16:43:44.278Z,58.28
2022-09-20T16:46:15.611Z,58.58
2022-09-20T16:48:54.956Z,58.79
2022-09-20T16:51:27.487Z,58.91
2022-09-20T16:53:59.627Z,59.34
2022-09-20T16:56:34.315Z,59.53
2022-09-20T16:59:04.561Z,59.50
2022-09-20T17:01:37.269Z,59.27
2022-09-20T17:04:09.142Z,59.74
2022-09-20T17:06:41.441Z,60.06
2022-09-20T17:09:13.478Z,60.05
2022-09-20T17:11:47.502Z,60.82
2022-09-20T17:14:20.739Z,61.29
2022-09-20T17:16:59.349Z,61.45
2022-09-20T17:19:38.653Z,61.51
2022-09-20T17:22:17.464Z,61.32
2022-09-20T17:24:50.526Z,61.55
2022-09-20T17:27:22.291Z,61.34
2022-09-20T17:29:53.951Z,61.53
2022-09-20T17:32:25.209Z,61.58
2022-09-20T17:34:56.595Z,61.52
2022-09-20T17:37:28.192Z,61.26
2022-09-20T17:40:03.465Z,61.15
2022-09-20T17:42:37.571Z,61.40
2022-09-20T17:45:13.388Z,61.96
2022-09-20T17:47:45.012Z,62.95
2022-09-20T17:50:16.883Z,63.24
2022-09-20T17:52:48.569Z,63.43
2022-09-20T17:55:21.133Z,62.98
2022-09-20T17:57:55.585Z,62.74
2022-09-20T18:00:27.385Z,63.12
2022-09-20T18:03:06.679Z,63.36
2022-09-20T18:05:38.226Z,63.22
2022-09-20T18:08:09.748Z,63.62
2022-09-20T18:10:41.164Z,63.82
2022-09-20T18:13:13.795Z,63.98
2022-09-20T18:15:48.070Z,64.80
2022-09-20T18:18:20.322Z,64.69
2022-09-20T18:20:51.674Z,64.65
2022-09-20T18:23:22.846Z,64.70
2022-09-20T18:26:12.640Z,64.34
2022-09-20T18:28:48.839Z,65.20
2022-09-20T18:31:21.953Z,65.53
2022-09-20T18:34:09.894Z,65.77
2022-09-20T18:36:43.820Z,65.38
2022-09-20T18:39:15.943Z,65.12
2022-09-20T18:41:50.282Z,65.16
2022-09-20T18:44:22.201Z,65.36
2022-09-20T18:46:55.675Z,65.01
2022-09-20T18:49:27.473Z,65.41
2022-09-20T18:52:01.734Z,65.28
2022-09-20T18:54:33.826Z,65.92
2022-09-20T18:57:06.753Z,65.62
2022-09-20T18:59:53.427Z,65.49
2022-09-20T19:02:49.214Z,65.59
2022-09-20T19:05:35.441Z,65.75
2022-09-20T19:08:29.128Z,65.69
2022-09-20T19:11:05.806Z,65.71
2022-09-20T19:13:48.759Z,65.87
2022-09-20T19:16:27.805Z,66.10
2022-09-20T19:19:19.862Z,66.05
2022-09-20T19:22:01.179Z,66.03
2022-09-20T19:24:45.410Z,66.17
2022-09-20T19:27:18.484Z,66.42
2022-09-20T19:29:51.171Z,65.84
2022-09-20T19:32:26.477Z,66.65
2022-09-20T19:35:02.280Z,66.84
2022-09-20T19:37:46.377Z,67.07
2022-09-20T19:40:27.709Z,66.86
2022-09-20T19:43:17.864Z,67.14
2022-09-20T19:45:58.615Z,66.83
2022-09-20T19:48:40.856Z,66.51
2022-09-20T19:51:17.657Z,66.85
2022-09-20T19:53:50.760Z,66.53
2022-09-20T19:56:29.022Z,66.35
2022-09-20T19:59:01.628Z,66.15
2022-09-20T20:01:37.706Z,66.18
2022-09-20T20:04:13.028Z,66.44
2022-09-20T20:06:53.318Z,66.08
2022-09-20T20:09:35.301Z,65.87
2022-09-20T20:12:16.731Z,66.21
2022-09-20T20:14:58.942Z,65.98
2022-09-20T20:17:45.506Z,66.10
2022-09-20T20:20:27.207Z,66.84
2022-09-20T20:23:21.503Z,66.59
2022-09-20T20:26:03.142Z,66.25
2022-09-20T20:28:35.312Z,66.11
2022-09-20T20:31:12.790Z,66.07
2022-09-20T20:33:47.058Z,66.08
2022-09-20T20:36:21.303Z,65.70
2022-09-20T20:38:55.093Z,65.92
2022-09-20T20:41:29.476Z,65.93
2022-09-20T20:44:05.750Z,66.48
2022-09-20T20:46:38.744Z,67.01
2022-09-20T20:49:10.642Z,66.94
2022-09-20T20:51:42.674Z,67.18
2022-09-20T20:54:14.012Z,66.95
2022-09-20T20:56:46.133Z,67.68
2022-09-20T20:59:17.735Z,67.38
2022-09-20T21:01:49.463Z,67.57
2022-09-20T21:04:22.021Z,67.32
2022-09-20T21:06:53.657Z,67.89
2022-09-20T21:09:25.530Z,67.37
2022-09-20T21:11:57.032Z,67.72
2022-09-20T21:14:28.806Z,67.63
2022-09-20T21:17:00.246Z,67.45
2022-09-20T21:19:31.646Z,67.81
2022-09-20T21:22:03.170Z,68.03
2022-09-20T21:24:34.464Z,67.67
2022-09-20T21:27:06.117Z,67.60
2022-09-20T21:29:37.711Z,67.69
2022-09-20T21:32:09.562Z,67.65
2022-09-20T21:34:41.488Z,68.06
2022-09-20T21:37:12.939Z,67.91
2022-09-20T21:39:44.392Z,68.17
2022-09-20T21:42:17.371Z,67.88
2022-09-20T21:44:48.602Z,68.11
2022-09-20T21:47:20.443Z,68.29
2022-09-20T21:49:52.054Z,68.42
2022-09-20T21:52:23.203Z,69.08
2022-09-20T21:54:54.449Z,69.15
2022-09-20T21:57:25.688Z,68.91
2022-09-20T21:59:57.070Z,68.61
2022-09-20T22:02:28.539Z,68.83
2022-09-20T22:05:00.118Z,69.05
2022-09-20T22:07:31.509Z,69.07
2022-09-20T22:10:02.769Z,69.38
2022-09-20T22:12:34.166Z,69.46
2022-09-20T22:15:06.382Z,69.29
2022-09-20T22:17:38.199Z,69.41
2022-09-20T22:20:10.889Z,69.54
2022-09-20T22:25:33.891Z,69.36
2022-09-20T22:28:05.584Z,69.59
2022-09-20T22:30:38.007Z,69.32
2022-09-20T22:33:09.481Z,69.42
2022-09-20T22:35:47.177Z,69.79
2022-09-20T22:38:18.918Z,69.75
2022-09-20T22:40:57.473Z,69.79
2022-09-20T22:43:29.000Z,70.01
2022-09-20T22:46:05.680Z,70.60
2022-09-20T22:48:38.305Z,70.71
2022-09-20T22:51:12.460Z,70.80
2022-09-20T22:53:45.485Z,70.63
2022-09-20T22:56:18.875Z,70.77
2022-09-20T22:58:52.973Z,70.63
2022-09-20T23:01:26.356Z,70.33
2022-09-20T23:03:59.392Z,70.02
2022-09-20T23:06:34.410Z,70.09
2022-09-20T23:09:08.214Z,69.97
2022-09-20T23:11:42.181Z,70.41
2022-09-20T23:14:16.116Z,70.86
2022-09-20T23:16:48.555Z,70.55
2022-09-20T23:19:20.658Z,70.36
2022-09-20T23:21:51.747Z,70.75
2022-09-20T23:24:23.006Z,70.81
2022-09-20T23:26:54.093Z,70.66
2022-09-20T23:29:26.734Z,70.62
2022-09-20T23:31:57.985Z,71.02
2022-09-20T23:34:29.060Z,71.47
2022-09-20T23:40:04.658Z,71.54
2022-09-20T23:42:37.231Z,71.53
2022-09-20T23:45:11.991Z,71.24
2022-09-20T23:47:41.432Z,71.61
2022-09-20T23:50:13.202Z,71.44
2022-09-20T23:52:44.612Z,72.00
2022-09-20T23:55:16.820Z,71.97
2022-09-20T23:57:49.338Z,72.46
